Time;durP1;ratioP1;P1;durP2;ratioP2;P2;SDS_P1;SDS_P2;PMS_P1;PMS_P2;Temp;Humidity;BMP_temperature;BMP_pressure;BME280_temperature;BME280_humidity;BME280_pressure;Samples;Min_cycle;Max_cycle;Signal;HPM_P1;HPM_P2
2023/09/09 00:01:31;;;;;;;17.92;16.13;;;21.10;99.90;;;;;;5031376;28;20485;-79
2023/09/09 00:03:57;;;;;;;17.83;15.90;;;21.00;99.90;;;;;;5053743;28;20421;-79
2023/09/09 00:06:22;;;;;;;17.47;15.07;;;20.90;99.90;;;;;;5034419;28;20428;-79
2023/09/09 00:08:48;;;;;;;18.30;15.70;;;20.90;99.90;;;;;;5025828;28;20419;-79
2023/09/09 00:11:14;;;;;;;18.25;16.35;;;20.90;99.90;;;;;;5039091;28;20429;-79
2023/09/09 00:13:40;;;;;;;16.38;14.70;;;20.90;99.90;;;;;;5034533;28;20851;-79
2023/09/09 00:16:06;;;;;;;16.77;14.98;;;20.90;99.90;;;;;;5047765;28;20508;-78
2023/09/09 00:18:32;;;;;;;15.87;14.17;;;21.20;99.90;;;;;;5049578;28;20436;-78
2023/09/09 00:20:57;;;;;;;16.63;14.10;;;20.90;99.90;;;;;;5031753;28;20423;-78
2023/09/09 00:23:23;;;;;;;15.85;14.15;;;20.90;99.90;;;;;;5050758;28;20417;-79
2023/09/09 00:25:49;;;;;;;15.77;14.27;;;21.20;99.90;;;;;;5049419;28;20429;-79
2023/09/09 00:28:15;;;;;;;15.90;14.27;;;20.90;99.90;;;;;;5050296;28;20923;-79
2023/09/09 00:30:42;;;;;;;16.38;14.77;;;21.10;99.90;;;;;;5084912;28;20423;-78
2023/09/09 00:33:08;;;;;;;16.70;15.00;;;20.80;99.90;;;;;;5040858;28;20438;-79
2023/09/09 00:35:37;;;;;;;17.50;15.75;;;20.70;99.90;;;;;;5057195;28;20928;-79
2023/09/09 00:38:03;;;;;;;17.67;15.88;;;20.40;99.90;;;;;;5034104;28;20429;-79
2023/09/09 00:40:28;;;;;;;18.52;15.60;;;20.50;99.90;;;;;;5049474;28;20903;-78
2023/09/09 00:42:54;;;;;;;16.17;14.57;;;20.60;99.90;;;;;;5041934;28;20780;-78
2023/09/09 00:45:20;;;;;;;16.10;14.40;;;20.60;99.90;;;;;;5026520;28;21002;-77
2023/09/09 00:47:46;;;;;;;16.50;14.87;;;20.70;99.90;;;;;;5062256;28;20415;-78
2023/09/09 00:50:13;;;;;;;16.67;14.98;;;20.50;99.90;;;;;;5042803;28;20425;-78
2023/09/09 00:52:41;;;;;;;16.55;14.85;;;20.40;99.90;;;;;;5048301;28;20434;-79
2023/09/09 00:55:09;;;;;;;16.20;14.60;;;20.80;99.90;;;;;;5029471;28;20517;-79
2023/09/09 00:57:34;;;;;;;16.88;14.88;;;20.20;99.90;;;;;;5060005;28;20430;-79
2023/09/09 01:00:09;;;;;;;16.10;14.50;;;20.20;99.90;;;;;;5044319;28;20781;-77
2023/09/09 01:02:39;;;;;;;15.35;13.75;;;20.20;99.90;;;;;;5055006;28;20479;-78
2023/09/09 01:05:07;;;;;;;15.07;13.53;;;20.10;99.90;;;;;;5058352;28;20425;-77
2023/09/09 01:07:46;;;;;;;14.25;12.60;;;20.20;99.90;;;;;;5050254;28;20478;-78
2023/09/09 01:10:14;;;;;;;13.82;12.32;;;19.90;99.90;;;;;;5053034;28;20405;-78
2023/09/09 01:12:42;;;;;;;13.68;12.25;;;19.90;99.90;;;;;;5050078;28;20506;-78
2023/09/09 01:15:08;;;;;;;13.45;11.80;;;20.00;99.90;;;;;;5026602;28;20423;-78
2023/09/09 01:17:35;;;;;;;13.93;12.00;;;20.10;99.90;;;;;;5030628;28;20417;-79
2023/09/09 01:20:13;;;;;;;14.60;13.13;;;19.80;99.90;;;;;;5039072;28;20760;-78
2023/09/09 01:22:40;;;;;;;15.00;13.50;;;20.00;99.90;;;;;;5054930;28;20450;-79
2023/09/09 01:25:07;;;;;;;15.60;13.85;;;20.00;99.90;;;;;;5047285;28;20896;-78
2023/09/09 01:27:33;;;;;;;15.95;14.35;;;19.80;99.90;;;;;;5070345;28;20448;-79
2023/09/09 01:29:59;;;;;;;16.20;14.57;;;20.00;99.90;;;;;;5040209;28;20426;-78
2023/09/09 01:32:25;;;;;;;16.60;14.18;;;19.80;99.90;;;;;;5057743;28;20420;-78
2023/09/09 01:34:51;;;;;;;15.23;13.63;;;19.90;99.90;;;;;;5020727;28;20413;-78
2023/09/09 01:37:18;;;;;;;16.65;13.50;;;20.00;99.90;;;;;;5035458;28;20420;-78
2023/09/09 01:39:44;;;;;;;15.10;13.10;;;20.20;99.90;;;;;;5050163;28;20459;-78
2023/09/09 01:42:10;;;;;;;14.65;13.15;;;19.90;99.90;;;;;;5036031;28;20552;-78
2023/09/09 01:44:35;;;;;;;15.23;13.63;;;20.00;99.90;;;;;;5053822;28;20520;-78
2023/09/09 01:47:01;;;;;;;15.93;14.13;;;19.90;99.90;;;;;;5054187;28;20889;-78
2023/09/09 01:49:27;;;;;;;14.88;13.48;;;19.80;99.90;;;;;;5042131;28;20889;-77
2023/09/09 01:51:52;;;;;;;15.82;14.00;;;19.70;99.90;;;;;;5018178;28;20944;-78
2023/09/09 01:54:18;;;;;;;16.20;14.50;;;19.80;99.90;;;;;;5024977;28;20433;-78
2023/09/09 01:56:46;;;;;;;15.90;14.20;;;19.90;99.90;;;;;;5035945;28;20432;-78
2023/09/09 01:59:11;;;;;;;15.40;13.67;;;19.80;99.90;;;;;;5034260;28;20970;-77
2023/09/09 02:01:37;;;;;;;15.50;13.90;;;19.60;99.90;;;;;;5050181;28;20461;-78
2023/09/09 02:04:03;;;;;;;15.80;14.18;;;19.70;99.90;;;;;;5078059;28;20445;-79
2023/09/09 02:06:28;;;;;;;15.37;13.70;;;19.70;99.90;;;;;;5053267;28;20413;-79
2023/09/09 02:08:54;;;;;;;15.20;13.40;;;19.50;99.90;;;;;;5036750;28;20405;-78
2023/09/09 02:11:20;;;;;;;15.18;13.57;;;19.80;99.90;;;;;;5035152;28;20831;-77
2023/09/09 02:13:46;;;;;;;16.25;13.98;;;17.30;99.90;;;;;;5084932;28;20803;-77
2023/09/09 02:16:11;;;;;;;15.17;13.57;;;19.50;99.90;;;;;;5067371;28;20940;-78
2023/09/09 02:18:37;;;;;;;14.10;12.67;;;19.40;99.90;;;;;;5036434;28;20443;-79
2023/09/09 02:21:05;;;;;;;16.88;13.30;;;19.50;99.90;;;;;;5038359;28;20409;-78
2023/09/09 02:23:30;;;;;;;14.50;12.90;;;19.50;99.90;;;;;;5061833;28;20939;-78
2023/09/09 02:25:56;;;;;;;15.38;13.25;;;19.50;99.90;;;;;;5055857;28;20440;-78
2023/09/09 02:28:22;;;;;;;14.85;13.18;;;19.60;99.90;;;;;;5035959;28;20789;-78
2023/09/09 02:30:48;;;;;;;15.98;13.93;;;19.50;99.90;;;;;;5035507;28;20548;-77
2023/09/09 02:33:14;;;;;;;16.63;14.23;;;19.40;99.90;;;;;;5035386;28;20575;-78
2023/09/09 02:35:43;;;;;;;15.35;13.70;;;19.60;99.90;;;;;;5084857;28;20421;-79
2023/09/09 02:38:09;;;;;;;15.63;14.02;;;19.50;99.90;;;;;;5036783;28;20397;-78
2023/09/09 02:40:35;;;;;;;19.90;15.82;;;19.30;99.90;;;;;;5033697;28;21025;-77
2023/09/09 02:43:01;;;;;;;16.70;14.10;;;19.30;99.90;;;;;;5051466;28;20909;-78
2023/09/09 02:45:27;;;;;;;17.83;15.80;;;19.50;99.90;;;;;;5035615;28;20417;-78
2023/09/09 02:47:52;;;;;;;22.10;16.03;;;19.30;99.90;;;;;;5021183;28;20927;-79
2023/09/09 02:50:18;;;;;;;18.20;15.32;;;19.20;99.90;;;;;;5051418;28;20436;-78
2023/09/09 02:52:44;;;;;;;19.17;16.15;;;19.50;99.90;;;;;;5061036;28;20424;-79
2023/09/09 02:55:09;;;;;;;17.13;15.20;;;19.10;99.90;;;;;;5020224;28;20468;-78
2023/09/09 02:57:35;;;;;;;18.07;16.13;;;19.10;99.90;;;;;;5014168;28;20421;-79
2023/09/09 03:00:01;;;;;;;19.45;16.42;;;19.10;99.90;;;;;;5031539;28;20468;-78
2023/09/09 03:02:27;;;;;;;18.23;16.25;;;19.00;99.90;;;;;;5034062;28;20421;-78
2023/09/09 03:04:52;;;;;;;20.37;15.60;;;19.10;99.90;;;;;;5035439;28;20426;-78
2023/09/09 03:07:19;;;;;;;21.88;16.67;;;19.20;99.90;;;;;;5033677;28;20421;-78
2023/09/09 03:09:45;;;;;;;21.23;18.92;;;19.10;99.90;;;;;;5051505;28;20904;-78
2023/09/09 03:12:11;;;;;;;19.90;17.75;;;19.10;99.90;;;;;;5037961;28;20913;-79
2023/09/09 03:14:37;;;;;;;18.55;16.55;;;19.00;99.90;;;;;;5040541;28;20468;-78
2023/09/09 03:17:03;;;;;;;21.25;17.83;;;18.10;99.90;;;;;;5037340;28;20512;-78
2023/09/09 03:19:28;;;;;;;21.87;18.87;;;19.00;99.90;;;;;;5040450;28;20425;-77
2023/09/09 03:21:54;;;;;;;20.03;17.77;;;19.00;99.90;;;;;;5053878;28;20448;-77
2023/09/09 03:24:20;;;;;;;21.33;18.70;;;19.00;99.90;;;;;;5052207;28;20433;-78
2023/09/09 03:26:46;;;;;;;21.42;18.50;;;19.00;99.90;;;;;;5031849;28;20434;-76
2023/09/09 03:29:11;;;;;;;22.13;19.70;;;18.80;99.90;;;;;;5016250;28;20403;-78
2023/09/09 03:31:37;;;;;;;22.20;19.80;;;18.90;99.90;;;;;;5039265;28;20414;-78
2023/09/09 03:34:03;;;;;;;21.27;18.85;;;18.90;99.90;;;;;;5063423;28;20414;-78
2023/09/09 03:36:29;;;;;;;21.20;18.95;;;18.80;99.90;;;;;;5057225;28;20912;-78
2023/09/09 03:38:55;;;;;;;20.50;18.30;;;18.80;99.90;;;;;;5074437;28;20455;-78
2023/09/09 03:41:20;;;;;;;20.42;17.92;;;18.60;99.90;;;;;;5027341;28;20419;-78
2023/09/09 03:43:47;;;;;;;19.53;17.43;;;18.80;99.90;;;;;;5068660;28;20420;-78
2023/09/09 03:46:13;;;;;;;19.85;16.98;;;18.70;99.90;;;;;;5050950;28;20486;-78
2023/09/09 03:48:38;;;;;;;19.98;16.95;;;18.60;99.90;;;;;;5063985;28;21081;-78
2023/09/09 03:51:04;;;;;;;18.05;15.57;;;18.60;99.90;;;;;;5039075;28;20484;-77
2023/09/09 03:53:30;;;;;;;20.73;18.63;;;18.60;99.90;;;;;;5061579;28;20429;-79
2023/09/09 03:55:58;;;;;;;26.07;23.03;;;17.80;99.90;;;;;;5057867;28;20499;-77
2023/09/09 03:58:24;;;;;;;39.22;27.17;;;18.70;99.90;;;;;;5051103;28;20500;-78
2023/09/09 04:01:04;;;;;;;24.70;20.92;;;18.80;99.90;;;;;;5034001;28;20428;-78
2023/09/09 04:03:33;;;;;;;25.30;22.60;;;18.90;99.90;;;;;;5045327;28;20427;-79
2023/09/09 04:06:00;;;;;;;27.08;23.27;;;18.60;99.90;;;;;;5033937;28;20424;-78
2023/09/09 04:08:28;;;;;;;28.35;22.80;;;19.10;99.90;;;;;;5036316;28;20512;-78
2023/09/09 04:10:54;;;;;;;27.60;22.63;;;18.70;99.90;;;;;;5018795;28;20406;-78
2023/09/09 04:13:20;;;;;;;30.17;25.60;;;18.90;99.90;;;;;;5051689;28;20417;-78
2023/09/09 04:15:46;;;;;;;27.03;22.40;;;18.90;99.90;;;;;;5049816;28;20944;-78
2023/09/09 04:18:12;;;;;;;34.17;26.40;;;18.70;99.90;;;;;;5051794;28;20413;-78
2023/09/09 04:20:38;;;;;;;30.45;25.80;;;18.60;99.90;;;;;;5033189;28;20448;-79
2023/09/09 04:23:06;;;;;;;32.08;28.65;;;18.80;99.90;;;;;;5032717;28;20522;-78
2023/09/09 04:25:32;;;;;;;30.27;26.67;;;18.80;99.90;;;;;;5043960;28;20437;-79
2023/09/09 04:27:58;;;;;;;33.50;29.85;;;18.60;99.90;;;;;;5052267;28;20509;-78
2023/09/09 04:30:23;;;;;;;35.70;30.65;;;18.70;99.90;;;;;;5071605;28;20486;-77
2023/09/09 04:32:49;;;;;;;36.53;31.55;;;18.90;99.90;;;;;;5050280;28;20438;-77
2023/09/09 04:35:15;;;;;;;34.33;29.53;;;18.60;99.90;;;;;;5016704;28;20428;-78
2023/09/09 04:37:40;;;;;;;34.97;29.83;;;18.80;99.90;;;;;;5033936;28;20424;-78
2023/09/09 04:40:10;;;;;;;34.40;28.95;;;18.80;99.90;;;;;;5048989;28;20424;-78
2023/09/09 04:42:35;;;;;;;36.10;30.20;;;18.60;99.90;;;;;;5066229;28;20429;-78
2023/09/09 04:45:03;;;;;;;36.17;29.90;;;18.70;99.90;;;;;;5034287;28;20427;-77
2023/09/09 04:47:28;;;;;;;36.88;30.63;;;18.70;99.90;;;;;;5083990;28;20414;-78
2023/09/09 04:49:57;;;;;;;35.45;31.15;;;18.50;99.90;;;;;;5026507;28;20800;-78
2023/09/09 04:52:23;;;;;;;36.83;30.60;;;18.50;99.90;;;;;;5039497;28;20518;-78
2023/09/09 04:54:49;;;;;;;40.78;33.58;;;18.80;99.90;;;;;;5038815;28;21004;-78
2023/09/09 04:57:16;;;;;;;36.95;31.70;;;18.60;99.90;;;;;;5015746;28;20928;-78
2023/09/09 04:59:42;;;;;;;39.85;33.20;;;18.60;99.90;;;;;;5041745;28;20460;-77
2023/09/09 05:02:08;;;;;;;38.47;31.08;;;18.60;99.90;;;;;;5058416;28;20411;-78
2023/09/09 05:04:33;;;;;;;39.63;32.83;;;18.30;99.90;;;;;;5039804;28;20437;-77
2023/09/09 05:07:00;;;;;;;41.70;31.83;;;18.60;99.90;;;;;;5021397;28;20413;-78
2023/09/09 05:09:27;;;;;;;42.55;32.83;;;18.70;99.90;;;;;;5049072;28;20417;-78
2023/09/09 05:11:52;;;;;;;37.50;32.30;;;18.50;99.90;;;;;;5043519;28;20808;-77
2023/09/09 05:14:18;;;;;;;39.67;32.70;;;18.60;99.90;;;;;;5039607;28;20421;-77
2023/09/09 05:16:44;;;;;;;42.53;33.67;;;18.70;99.90;;;;;;5062339;28;20851;-82
2023/09/09 05:19:10;;;;;;;39.10;33.27;;;20.40;99.90;;;;;;5022994;28;20504;-85
2023/09/09 05:21:35;;;;;;;41.80;35.95;;;18.40;99.90;;;;;;5051198;28;20461;-86
2023/09/09 05:24:02;;;;;;;46.58;37.33;;;18.70;99.90;;;;;;5026131;28;20429;-86
2023/09/09 05:26:28;;;;;;;43.20;36.53;;;18.50;99.90;;;;;;5057100;28;20425;-85
2023/09/09 05:28:54;;;;;;;45.33;37.08;;;16.70;99.90;;;;;;5068316;28;20409;-86
2023/09/09 05:31:19;;;;;;;44.45;38.88;;;18.60;99.90;;;;;;5041730;28;20393;-84
2023/09/09 05:33:45;;;;;;;47.80;38.50;;;18.70;99.90;;;;;;5037655;28;20946;-84
2023/09/09 05:36:11;;;;;;;43.63;38.27;;;18.60;99.90;;;;;;5083753;28;20952;-85
2023/09/09 05:38:37;;;;;;;43.40;38.70;;;18.40;99.90;;;;;;5037023;28;20450;-83
2023/09/09 05:41:03;;;;;;;41.63;37.05;;;18.60;99.90;;;;;;5072327;28;20406;-84
2023/09/09 05:43:29;;;;;;;44.05;38.30;;;18.70;99.90;;;;;;5056137;28;20414;-85
2023/09/09 05:45:59;;;;;;;43.22;36.75;;;18.40;99.90;;;;;;5036146;28;20462;-85
2023/09/09 05:48:26;;;;;;;45.40;37.78;;;18.80;99.90;;;;;;5042985;28;20416;-86
2023/09/09 05:50:55;;;;;;;44.85;37.42;;;18.80;99.90;;;;;;5053452;28;20424;-86
2023/09/09 05:53:21;;;;;;;43.63;35.42;;;18.90;99.90;;;;;;5030504;28;20968;-87
2023/09/09 05:55:46;;;;;;;42.75;37.55;;;18.90;99.90;;;;;;5041298;28;20427;-87
2023/09/09 05:58:12;;;;;;;41.97;36.13;;;19.00;99.90;;;;;;5047593;28;20427;-86
2023/09/09 06:00:38;;;;;;;43.80;36.97;;;19.10;99.90;;;;;;5056265;28;20401;-87
2023/09/09 06:03:04;;;;;;;43.63;37.00;;;19.00;99.90;;;;;;5039530;28;20417;-87
2023/09/09 06:05:30;;;;;;;44.10;37.70;;;19.00;99.90;;;;;;5040324;28;20487;-85
2023/09/09 06:07:57;;;;;;;45.00;38.40;;;19.20;99.90;;;;;;5054735;28;20884;-87
2023/09/09 06:10:22;;;;;;;44.43;37.43;;;19.20;99.90;;;;;;5046845;28;20425;-86
2023/09/09 06:12:49;;;;;;;42.30;35.77;;;19.10;99.90;;;;;;5058342;28;20476;-85
2023/09/09 06:15:14;;;;;;;39.97;35.67;;;19.10;99.90;;;;;;5048474;28;20515;-88
2023/09/09 06:17:41;;;;;;;39.33;34.92;;;19.20;99.90;;;;;;5048144;28;20868;-86
2023/09/09 06:20:07;;;;;;;38.10;33.80;;;19.00;99.90;;;;;;5038797;28;20423;-86
2023/09/09 06:22:34;;;;;;;35.85;32.03;;;19.70;99.90;;;;;;5036943;28;20417;-87
2023/09/09 06:25:01;;;;;;;37.55;33.55;;;19.50;99.90;;;;;;5044184;28;20424;-84
2023/09/09 06:27:27;;;;;;;37.35;32.85;;;19.80;99.90;;;;;;5038287;28;20483;-85
2023/09/09 06:29:52;;;;;;;37.87;32.53;;;20.10;99.90;;;;;;5054569;28;20410;-85
2023/09/09 06:32:18;;;;;;;35.97;32.07;;;20.00;99.90;;;;;;5049071;28;20779;-85
2023/09/09 06:34:44;;;;;;;38.30;32.60;;;20.20;99.90;;;;;;5044921;28;20445;-84
2023/09/09 06:37:10;;;;;;;39.88;32.10;;;20.20;99.90;;;;;;5040249;28;20414;-84
2023/09/09 06:39:36;;;;;;;37.08;30.75;;;20.20;99.90;;;;;;5059764;28;20457;-88
2023/09/09 06:42:02;;;;;;;34.42;30.38;;;20.50;99.90;;;;;;5065986;28;20439;-87
2023/09/09 06:44:28;;;;;;;33.75;29.88;;;20.70;99.90;;;;;;5056783;28;20413;-87
2023/09/09 06:46:54;;;;;;;33.45;29.85;;;20.60;99.90;;;;;;5059950;28;20424;-87
2023/09/09 06:49:19;;;;;;;33.60;29.90;;;20.50;99.90;;;;;;5044041;28;20418;-88
2023/09/09 06:51:46;;;;;;;36.60;29.40;;;20.60;99.90;;;;;;5071370;28;20401;-87
2023/09/09 06:54:12;;;;;;;34.97;29.20;;;20.50;99.90;;;;;;5076101;28;20422;-87
2023/09/09 06:56:38;;;;;;;35.50;29.50;;;20.80;99.90;;;;;;5058966;28;20463;-81
2023/09/09 06:59:03;;;;;;;31.70;28.30;;;20.70;99.90;;;;;;5058143;28;20481;-88
2023/09/09 07:01:29;;;;;;;33.90;28.60;;;21.10;99.90;;;;;;5051126;28;20947;-88
2023/09/09 07:03:55;;;;;;;32.85;29.33;;;21.20;99.90;;;;;;5071764;28;20437;-88
2023/09/09 07:06:21;;;;;;;32.88;29.48;;;21.20;99.90;;;;;;5040003;28;20422;-87
2023/09/09 07:08:47;;;;;;;33.50;30.00;;;21.50;99.90;;;;;;5053366;28;20423;-82
2023/09/09 07:11:13;;;;;;;34.55;30.98;;;21.30;99.90;;;;;;5046452;28;20417;-89
2023/09/09 07:13:39;;;;;;;34.80;30.88;;;21.30;99.90;;;;;;5065104;28;20487;-83
2023/09/09 07:16:05;;;;;;;34.15;30.48;;;21.20;99.90;;;;;;5022672;28;20429;-82
2023/09/09 07:18:30;;;;;;;35.47;31.77;;;21.60;99.90;;;;;;5067850;28;20504;-84
2023/09/09 07:21:00;;;;;;;35.13;31.23;;;21.60;99.90;;;;;;5053033;28;20421;-88
2023/09/09 07:23:26;;;;;;;34.20;30.60;;;21.60;99.90;;;;;;5055867;28;20405;-86
2023/09/09 07:25:52;;;;;;;34.90;31.20;;;20.80;99.90;;;;;;5029419;28;20494;-87
2023/09/09 07:28:18;;;;;;;34.17;30.57;;;21.70;99.90;;;;;;5049087;28;20479;-85
2023/09/09 07:30:44;;;;;;;35.60;31.80;;;22.10;99.90;;;;;;5049499;28;20420;-85
2023/09/09 07:33:10;;;;;;;36.13;32.22;;;22.40;99.90;;;;;;5085758;28;20443;-88
2023/09/09 07:35:35;;;;;;;35.77;32.03;;;22.20;99.90;;;;;;5035828;28;20426;-86
2023/09/09 07:38:04;;;;;;;34.63;30.95;;;22.40;99.90;;;;;;5029172;28;20417;-87
2023/09/09 07:40:30;;;;;;;35.28;31.38;;;22.70;99.90;;;;;;5046874;28;20503;-87
2023/09/09 07:42:55;;;;;;;34.05;30.35;;;22.70;99.90;;;;;;5048343;28;20940;-87
2023/09/09 07:45:21;;;;;;;34.83;31.13;;;22.80;99.90;;;;;;5049493;28;20425;-88
2023/09/09 07:47:47;;;;;;;35.00;30.25;;;23.10;99.90;;;;;;5046509;28;20807;-88
2023/09/09 07:50:13;;;;;;;33.23;29.80;;;23.00;99.90;;;;;;5037137;28;20970;-87
2023/09/09 07:52:39;;;;;;;33.58;29.98;;;23.30;99.90;;;;;;5044751;28;20450;-86
2023/09/09 07:55:05;;;;;;;34.17;29.42;;;23.50;99.90;;;;;;5052100;28;20425;-87
2023/09/09 07:57:31;;;;;;;32.70;29.27;;;23.70;99.90;;;;;;5051725;28;20422;-87
2023/09/09 07:59:56;;;;;;;32.60;29.15;;;23.70;99.90;;;;;;5032171;28;20433;-87
2023/09/09 08:02:22;;;;;;;31.13;27.83;;;23.90;99.90;;;;;;5018830;28;20420;-87
2023/09/09 08:04:48;;;;;;;32.65;29.13;;;23.90;99.90;;;;;;5017980;28;20497;-87
2023/09/09 08:07:13;;;;;;;33.85;30.35;;;24.00;99.90;;;;;;5033512;28;20429;-86
2023/09/09 08:09:39;;;;;;;33.23;29.73;;;24.30;99.90;;;;;;5035353;28;20425;-86
2023/09/09 08:12:05;;;;;;;34.70;31.05;;;24.40;99.90;;;;;;5068929;28;20413;-85
2023/09/09 08:14:31;;;;;;;37.85;31.13;;;24.50;99.90;;;;;;5035745;28;20453;-86
2023/09/09 08:16:58;;;;;;;34.53;30.83;;;24.50;99.90;;;;;;5062318;28;20468;-86
2023/09/09 08:19:23;;;;;;;34.85;30.83;;;24.40;99.90;;;;;;5027838;28;20433;-87
2023/09/09 08:21:49;;;;;;;34.20;30.40;;;24.40;99.90;;;;;;5051474;28;20406;-86
2023/09/09 08:24:15;;;;;;;33.35;29.75;;;24.30;99.90;;;;;;5037546;28;20422;-86
2023/09/09 08:26:41;;;;;;;38.00;30.83;;;24.70;99.90;;;;;;5042884;28;21013;-87
2023/09/09 08:29:06;;;;;;;33.53;30.02;;;24.50;99.90;;;;;;5051885;28;20425;-86
2023/09/09 08:31:32;;;;;;;32.75;29.45;;;24.50;99.90;;;;;;5018616;28;20466;-88
2023/09/09 08:33:58;;;;;;;34.10;30.10;;;24.60;99.90;;;;;;5034839;28;20528;-86
2023/09/09 08:36:25;;;;;;;32.55;29.05;;;24.70;99.90;;;;;;5051509;28;20425;-87
2023/09/09 08:38:56;;;;;;;33.20;28.92;;;24.80;99.90;;;;;;5050888;28;20408;-87
2023/09/09 08:41:25;;;;;;;31.67;28.27;;;25.00;99.90;;;;;;5033601;28;20417;-86
2023/09/09 08:44:25;;;;;;;32.92;28.65;;;25.30;99.90;;;;;;5065012;28;20433;-75
2023/09/09 08:46:53;;;;;;;31.52;28.23;;;25.50;99.90;;;;;;5048075;28;20425;-76
2023/09/09 08:49:23;;;;;;;33.88;28.98;;;25.60;99.90;;;;;;5046873;28;20440;-75
2023/09/09 08:52:12;;;;;;;31.80;28.38;;;25.60;99.90;;;;;;5082653;28;20437;-76
2023/09/09 08:54:38;;;;;;;33.38;29.73;;;26.00;99.90;;;;;;5046894;28;20475;-76
2023/09/09 08:57:04;;;;;;;32.93;29.40;;;26.10;99.90;;;;;;5032456;28;20446;-75
2023/09/09 08:59:33;;;;;;;31.63;28.23;;;26.20;99.90;;;;;;5047930;28;20424;-76
2023/09/09 09:02:00;;;;;;;29.88;26.75;;;25.90;99.90;;;;;;5073332;28;20405;-77
2023/09/09 09:04:27;;;;;;;31.23;27.83;;;26.30;99.90;;;;;;5043893;28;20784;-76
2023/09/09 09:06:54;;;;;;;32.05;28.75;;;26.50;99.90;;;;;;5050686;28;20420;-76
2023/09/09 09:09:20;;;;;;;31.73;28.37;;;26.80;99.90;;;;;;5034085;28;20431;-76
2023/09/09 09:11:46;;;;;;;31.92;27.77;;;26.70;99.90;;;;;;5067166;28;20465;-76
2023/09/09 09:14:11;;;;;;;30.57;27.33;;;26.50;99.90;;;;;;5032833;28;20470;-75
2023/09/09 09:16:42;;;;;;;30.63;26.92;;;26.60;99.90;;;;;;5046912;28;20425;-76
2023/09/09 09:19:18;;;;;;;31.40;28.03;;;26.60;99.90;;;;;;5058868;28;20426;-76
2023/09/09 09:21:44;;;;;;;31.97;28.40;;;26.20;99.90;;;;;;5041984;28;20795;-76
2023/09/09 09:24:10;;;;;;;32.55;29.17;;;26.60;99.90;;;;;;5047455;28;20519;-78
2023/09/09 09:26:36;;;;;;;32.75;29.00;;;26.70;99.90;;;;;;5050794;28;20428;-77
2023/09/09 09:29:06;;;;;;;33.70;30.10;;;26.40;99.90;;;;;;5028807;28;20433;-77
2023/09/09 09:31:32;;;;;;;32.83;29.33;;;26.50;99.90;;;;;;5064571;28;20480;-77
2023/09/09 09:33:59;;;;;;;33.08;29.67;;;26.50;99.90;;;;;;5047232;28;20417;-76
2023/09/09 09:36:26;;;;;;;32.38;28.83;;;26.50;99.90;;;;;;5024281;28;20830;-79
2023/09/09 09:38:55;;;;;;;33.33;29.83;;;26.50;99.90;;;;;;5049097;28;20420;-78
2023/09/09 09:41:22;;;;;;;32.60;29.05;;;26.70;99.90;;;;;;5051938;28;20416;-78
2023/09/09 09:43:49;;;;;;;29.10;25.90;;;26.80;99.90;;;;;;5081663;28;20420;-78
2023/09/09 09:46:20;;;;;;;28.13;25.15;;;26.60;99.90;;;;;;5034151;28;20521;-77
2023/09/09 09:48:46;;;;;;;28.40;25.23;;;26.60;99.90;;;;;;5035013;28;20437;-78
2023/09/09 09:51:12;;;;;;;28.33;23.35;;;27.00;99.90;;;;;;5038402;28;20444;-79
2023/09/09 09:53:47;;;;;;;29.50;25.98;;;26.80;99.90;;;;;;5054345;28;20417;-78
2023/09/09 09:56:14;;;;;;;30.15;26.95;;;26.70;99.90;;;;;;5054954;28;20494;-77
2023/09/09 09:58:43;;;;;;;33.67;29.50;;;26.80;99.90;;;;;;5037066;28;20438;-79
2023/09/09 10:01:10;;;;;;;32.17;27.83;;;26.50;99.90;;;;;;5052662;28;20516;-79
2023/09/09 10:03:51;;;;;;;25.15;22.45;;;27.00;99.90;;;;;;5075620;28;20422;-79
2023/09/09 10:06:26;;;;;;;26.15;20.98;;;27.20;99.90;;;;;;5043554;28;20413;-79
2023/09/09 10:09:08;;;;;;;18.65;16.65;;;27.10;99.90;;;;;;5053612;28;20433;-79
2023/09/09 10:11:48;;;;;;;19.23;15.88;;;27.30;99.90;;;;;;5059637;28;20503;-78
2023/09/09 10:14:14;;;;;;;18.00;16.10;;;27.10;99.90;;;;;;5052798;28;20518;-78
2023/09/09 10:16:42;;;;;;;21.02;18.02;;;27.20;99.90;;;;;;5070186;28;20555;-82
2023/09/09 10:19:11;;;;;;;14.90;12.90;;;26.90;99.90;;;;;;5048344;28;20440;-80
2023/09/09 10:21:38;;;;;;;11.80;10.23;;;27.20;99.90;;;;;;5095352;28;20917;-80
2023/09/09 10:24:06;;;;;;;13.70;11.75;;;27.20;99.90;;;;;;5024287;28;20425;-80
2023/09/09 10:26:32;;;;;;;14.00;11.23;;;27.40;99.90;;;;;;5056163;28;20465;-78
2023/09/09 10:28:59;;;;;;;11.88;10.68;;;27.10;99.90;;;;;;5072417;28;20473;-80
2023/09/09 10:31:28;;;;;;;13.52;11.35;;;27.10;99.90;;;;;;5062991;28;20501;-79
2023/09/09 10:33:55;;;;;;;15.48;12.90;;;27.50;99.90;;;;;;5053880;28;20425;-79
2023/09/09 10:36:21;;;;;;;16.48;13.85;;;27.70;99.90;;;;;;5035115;28;21084;-79
2023/09/09 10:38:49;;;;;;;14.55;11.15;;;27.70;99.90;;;;;;5016684;28;20479;-80
2023/09/09 10:41:15;;;;;;;14.43;12.02;;;27.60;99.90;;;;;;5038120;28;20485;-79
2023/09/09 10:43:41;;;;;;;14.45;11.25;;;27.90;99.90;;;;;;5033853;28;20494;-77
2023/09/09 10:46:10;;;;;;;16.60;13.97;;;28.00;99.90;;;;;;5075022;28;20429;-80
2023/09/09 10:48:36;;;;;;;14.73;12.15;;;28.30;99.90;;;;;;5051369;28;20424;-80
2023/09/09 10:51:06;;;;;;;16.10;13.90;;;28.40;99.90;;;;;;5060176;28;20462;-79
2023/09/09 10:53:32;;;;;;;15.83;13.33;;;28.10;99.90;;;;;;5019127;28;20460;-80
2023/09/09 10:56:16;;;;;;;17.47;14.93;;;28.30;99.90;;;;;;5051735;28;20449;-79
2023/09/09 10:58:46;;;;;;;15.83;14.13;;;28.20;99.90;;;;;;5073690;28;20538;-80
2023/09/09 11:01:26;;;;;;;16.15;11.90;;;28.20;99.90;;;;;;5046866;28;20747;-79
2023/09/09 11:03:52;;;;;;;13.13;11.45;;;30.10;99.90;;;;;;5034249;28;20432;-78
2023/09/09 11:06:30;;;;;;;13.68;11.77;;;28.10;99.90;;;;;;5044794;28;20437;-78
2023/09/09 11:09:02;;;;;;;14.13;11.65;;;28.10;99.90;;;;;;5037641;28;20485;-78
2023/09/09 11:11:37;;;;;;;14.48;10.65;;;28.30;99.90;;;;;;5054855;28;20411;-77
2023/09/09 11:14:10;;;;;;;16.53;13.37;;;28.30;99.90;;;;;;5035253;28;20478;-79
2023/09/09 11:16:41;;;;;;;14.80;13.20;;;28.30;99.90;;;;;;5048821;28;20430;-78
2023/09/09 11:19:11;;;;;;;14.60;12.60;;;28.20;99.90;;;;;;5053417;28;20420;-79
2023/09/09 11:21:47;;;;;;;18.87;11.70;;;28.10;99.90;;;;;;5029949;28;20448;-78
2023/09/09 11:24:14;;;;;;;14.00;11.68;;;28.40;99.90;;;;;;5048633;28;20424;-78
2023/09/09 11:26:44;;;;;;;14.02;12.52;;;28.10;99.90;;;;;;5042270;28;20446;-80
2023/09/09 11:29:11;;;;;;;15.52;12.45;;;28.30;99.90;;;;;;5021362;28;20949;-79
2023/09/09 11:31:37;;;;;;;15.35;12.95;;;28.80;99.90;;;;;;5009148;28;20463;-80
2023/09/09 11:34:04;;;;;;;14.93;13.27;;;28.60;99.90;;;;;;5015904;28;20432;-80
2023/09/09 11:36:30;;;;;;;15.13;13.57;;;28.10;99.90;;;;;;5075592;28;20432;-80
2023/09/09 11:38:59;;;;;;;13.25;11.85;;;28.20;99.90;;;;;;5034737;28;20427;-80
2023/09/09 11:41:27;;;;;;;14.52;11.85;;;28.30;99.90;;;;;;5014119;28;22137;-78
2023/09/09 11:44:04;;;;;;;13.35;12.00;;;28.70;99.90;;;;;;5012660;28;20421;-79
2023/09/09 11:46:40;;;;;;;15.00;12.03;;;29.00;99.90;;;;;;5026512;28;20451;-77
2023/09/09 11:49:06;;;;;;;14.77;13.20;;;28.70;99.90;;;;;;5010946;28;20400;-79
2023/09/09 11:51:33;;;;;;;15.02;13.43;;;29.10;99.90;;;;;;5047756;28;20427;-79
2023/09/09 11:54:02;;;;;;;18.00;12.90;;;29.10;99.90;;;;;;5061307;28;20483;-80
2023/09/09 11:56:29;;;;;;;13.50;11.75;;;29.20;99.90;;;;;;5011508;28;20437;-79
2023/09/09 11:58:55;;;;;;;15.32;12.13;;;29.30;99.90;;;;;;5023555;28;20419;-78
2023/09/09 12:01:22;;;;;;;16.83;10.93;;;29.60;99.90;;;;;;5013896;28;20448;-79
2023/09/09 12:03:49;;;;;;;12.65;11.35;;;29.60;99.90;;;;;;5021872;28;20908;-77
2023/09/09 12:06:21;;;;;;;11.43;10.18;;;29.70;99.90;;;;;;5053857;28;20422;-77
2023/09/09 12:08:48;;;;;;;13.47;10.67;;;29.80;99.90;;;;;;5035351;28;20951;-78
2023/09/09 12:11:16;;;;;;;14.35;12.95;;;30.00;99.90;;;;;;5003965;28;20425;-78
2023/09/09 12:13:43;;;;;;;12.57;10.20;;;30.20;99.90;;;;;;5062551;28;20503;-78
2023/09/09 12:16:09;;;;;;;12.43;9.30;;;30.10;99.90;;;;;;5002676;28;20541;-78
2023/09/09 12:18:36;;;;;;;10.33;8.97;;;30.30;99.90;;;;;;4992061;28;21057;-76
2023/09/09 12:21:08;;;;;;;9.98;7.38;;;30.20;99.60;;;;;;5043887;28;20429;-78
2023/09/09 12:23:39;;;;;;;8.10;6.97;;;29.80;99.70;;;;;;5011329;28;20762;-78
2023/09/09 12:26:18;;;;;;;8.98;6.38;;;30.00;99.10;;;;;;5024286;28;20440;-79
2023/09/09 12:29:10;;;;;;;8.68;7.13;;;30.30;98.80;;;;;;5048781;28;20848;-79